createdAt,value
2023-02-06T00:02:39.672Z,1022.03
2023-02-06T00:07:39.628Z,1022.00
2023-02-06T00:12:39.536Z,1022.01
2023-02-06T00:17:39.467Z,1021.90
2023-02-06T00:22:39.411Z,1021.79
2023-02-06T00:27:39.337Z,1021.79
2023-02-06T00:32:39.308Z,1021.84
2023-02-06T00:37:39.211Z,1021.80
2023-02-06T00:42:39.163Z,1021.78
2023-02-06T00:47:39.078Z,1021.84
2023-02-06T00:52:39.032Z,1021.86
2023-02-06T00:57:38.946Z,1021.95
2023-02-06T01:02:38.937Z,1022.08
2023-02-06T01:07:38.848Z,1022.00
2023-02-06T01:12:38.758Z,1022.17
2023-02-06T01:17:38.677Z,1022.26
2023-02-06T01:22:38.624Z,1022.24
2023-02-06T01:27:38.579Z,1022.16
2023-02-06T01:32:38.533Z,1021.99
2023-02-06T01:37:38.408Z,1021.98
2023-02-06T01:42:38.353Z,1021.91
2023-02-06T01:47:38.277Z,1021.86
2023-02-06T01:52:38.219Z,1021.88
2023-02-06T01:57:38.158Z,1021.86
2023-02-06T02:02:38.103Z,1021.96
2023-02-06T02:07:38.019Z,1021.87
2023-02-06T02:12:37.978Z,1021.87
2023-02-06T02:17:37.896Z,1021.83
2023-02-06T02:22:37.851Z,1021.78
2023-02-06T02:27:37.769Z,1021.76
2023-02-06T02:32:37.721Z,1021.74
2023-02-06T02:37:37.664Z,1021.63
2023-02-06T02:42:37.577Z,1021.56
2023-02-06T02:47:37.519Z,1021.47
2023-02-06T02:52:37.442Z,1021.36
2023-02-06T02:57:37.386Z,1021.36
2023-02-06T03:02:37.319Z,1021.36
2023-02-06T03:07:37.255Z,1021.36
2023-02-06T03:12:37.182Z,1021.33
2023-02-06T03:17:37.135Z,1021.36
2023-02-06T03:22:37.054Z,1021.34
2023-02-06T03:27:37.012Z,1021.19
2023-02-06T03:32:36.926Z,1021.16
2023-02-06T03:37:36.881Z,1021.23
2023-02-06T03:42:36.798Z,1021.35
2023-02-06T03:47:36.757Z,1021.34
2023-02-06T03:52:36.667Z,1021.36
2023-02-06T03:57:36.615Z,1021.52
2023-02-06T04:02:36.575Z,1021.40
2023-02-06T04:07:36.484Z,1021.44
2023-02-06T04:12:36.416Z,1021.46
2023-02-06T04:17:53.651Z,1021.42
2023-02-06T04:22:37.313Z,1021.36
2023-02-06T04:27:36.230Z,1021.38
2023-02-06T04:32:36.156Z,1021.16
2023-02-06T04:37:36.108Z,1021.22
2023-02-06T04:42:36.037Z,1021.20
2023-02-06T04:47:35.972Z,1021.42
2023-02-06T04:52:35.912Z,1021.55
2023-02-06T04:57:35.845Z,1021.51
2023-02-06T05:02:35.793Z,1021.51
2023-02-06T05:07:35.713Z,1021.50
2023-02-06T05:12:35.639Z,1021.28
2023-02-06T05:17:35.576Z,1021.19
2023-02-06T05:22:35.518Z,1021.10
2023-02-06T05:27:35.436Z,1021.12
2023-02-06T05:32:35.386Z,1021.20
2023-02-06T05:37:35.308Z,1021.09
2023-02-06T05:42:35.259Z,1021.01
2023-02-06T05:47:35.178Z,1021.06
2023-02-06T05:52:35.130Z,1021.17
2023-02-06T05:57:35.049Z,1021.28
2023-02-06T06:02:34.998Z,1021.21
2023-02-06T06:07:34.945Z,1021.17
2023-02-06T06:12:34.865Z,1021.17
2023-02-06T06:17:34.792Z,1021.16
2023-02-06T06:22:34.737Z,1021.09
2023-02-06T06:27:34.665Z,1021.17
2023-02-06T06:32:34.604Z,1021.13
2023-02-06T06:37:34.531Z,1021.10
2023-02-06T06:42:34.485Z,1021.11
2023-02-06T06:47:34.401Z,1021.26
2023-02-06T06:52:34.356Z,1021.33
2023-02-06T06:57:34.275Z,1021.36
2023-02-06T07:02:34.234Z,1021.44
2023-02-06T07:07:34.218Z,1021.48
2023-02-06T07:12:34.095Z,1021.44
2023-02-06T07:17:34.012Z,1021.40
2023-02-06T07:22:33.957Z,1021.50
2023-02-06T07:27:33.886Z,1021.46
2023-02-06T07:32:33.825Z,1021.52
2023-02-06T07:37:33.753Z,1021.49
2023-02-06T07:42:33.696Z,1021.44
2023-02-06T07:47:33.626Z,1021.33
2023-02-06T07:52:33.564Z,1021.36
2023-02-06T07:57:33.491Z,1021.28
2023-02-06T08:02:33.436Z,1021.28
2023-02-06T08:07:33.360Z,1021.27
2023-02-06T08:12:33.304Z,1021.08
2023-02-06T08:17:33.229Z,1021.12
2023-02-06T08:22:33.197Z,1021.09
2023-02-06T08:27:33.112Z,1021.08
2023-02-06T08:32:33.042Z,1021.10
2023-02-06T08:37:32.975Z,1021.21
2023-02-06T08:42:32.919Z,1021.23
2023-02-06T08:47:32.839Z,1021.20
2023-02-06T08:52:32.793Z,1021.27
2023-02-06T08:57:32.708Z,1021.16
2023-02-06T09:02:32.705Z,1021.06
2023-02-06T09:07:32.591Z,1021.04
2023-02-06T09:12:32.529Z,1020.96
2023-02-06T09:17:32.449Z,1020.93
2023-02-06T09:22:32.388Z,1021.06
2023-02-06T09:27:32.310Z,1020.97
2023-02-06T09:32:32.261Z,1021.00
2023-02-06T09:37:32.187Z,1021.06
2023-02-06T09:42:32.127Z,1021.09
2023-02-06T09:47:32.054Z,1021.04
2023-02-06T09:52:32.005Z,1021.03
2023-02-06T09:57:31.928Z,1020.99
2023-02-06T10:02:31.879Z,1021.09
2023-02-06T10:07:31.799Z,1020.96
2023-02-06T10:12:31.753Z,1021.02
2023-02-06T10:17:31.677Z,1021.01
2023-02-06T10:22:31.630Z,1020.94
2023-02-06T10:27:31.550Z,1020.77
2023-02-06T10:32:31.500Z,1020.80
2023-02-06T10:37:31.433Z,1020.77
2023-02-06T10:42:31.368Z,1020.68
2023-02-06T10:47:31.306Z,1020.62
2023-02-06T10:52:31.241Z,1020.64
2023-02-06T10:57:31.183Z,1020.63
2023-02-06T11:02:31.305Z,1020.65
2023-02-06T11:07:31.053Z,1020.62
2023-02-06T11:12:30.992Z,1020.71
2023-02-06T11:17:30.911Z,1020.56
2023-02-06T11:22:33.348Z,1020.46
2023-02-06T11:27:30.784Z,1020.38
2023-02-06T11:32:30.754Z,1020.46
2023-02-06T11:37:32.301Z,1020.41
2023-02-06T11:42:30.601Z,1020.30
2023-02-06T11:47:31.946Z,1020.42
2023-02-06T11:52:30.473Z,1020.29
2023-02-06T11:57:30.411Z,1020.37
2023-02-06T12:02:30.389Z,1020.45
2023-02-06T12:07:30.367Z,1020.42
2023-02-06T12:12:30.258Z,1020.37
2023-02-06T12:17:30.157Z,1020.22
2023-02-06T12:22:30.089Z,1020.21
2023-02-06T12:27:30.065Z,1020.34
2023-02-06T12:32:29.958Z,1020.29
2023-02-06T12:37:29.886Z,1020.41
2023-02-06T12:42:29.831Z,1020.31
2023-02-06T12:47:29.755Z,1020.36
2023-02-06T12:52:29.737Z,1020.33
2023-02-06T12:57:29.622Z,1020.32
2023-02-06T13:02:29.729Z,1020.38
2023-02-06T13:07:30.829Z,1020.38
2023-02-06T13:12:29.445Z,1020.39
2023-02-06T13:17:29.380Z,1020.37
2023-02-06T13:22:29.315Z,1020.31
2023-02-06T13:27:29.253Z,1020.35
2023-02-06T13:32:29.200Z,1020.39
2023-02-06T13:37:29.141Z,1020.39
2023-02-06T13:42:29.057Z,1020.36
2023-02-06T13:47:29.001Z,1020.30
2023-02-06T13:52:28.927Z,1020.40
2023-02-06T13:57:28.871Z,1020.42
2023-02-06T14:02:28.826Z,1020.43
2023-02-06T14:07:28.736Z,1020.39
2023-02-06T14:12:28.664Z,1020.45
2023-02-06T14:17:28.596Z,1020.47
2023-02-06T14:22:28.557Z,1020.51
2023-02-06T14:27:28.482Z,1020.48
2023-02-06T14:32:28.412Z,1020.60
2023-02-06T14:37:28.347Z,1020.53
2023-02-06T14:42:28.281Z,1020.58
2023-02-06T14:47:28.224Z,1020.76
2023-02-06T14:52:28.151Z,1020.78
2023-02-06T14:57:28.094Z,1020.85
2023-02-06T15:02:28.019Z,1020.90
2023-02-06T15:07:27.958Z,1020.97
2023-02-06T15:12:27.893Z,1021.04
2023-02-06T15:17:27.817Z,1021.05
2023-02-06T15:22:27.780Z,1021.14
2023-02-06T15:27:27.689Z,1021.15
2023-02-06T15:32:27.798Z,1021.31
2023-02-06T15:37:27.709Z,1021.40
2023-02-06T15:42:27.505Z,1021.39
2023-02-06T15:47:27.438Z,1021.44
2023-02-06T15:52:27.374Z,1021.48
2023-02-06T15:57:27.301Z,1021.58
2023-02-06T16:02:27.257Z,1021.70
2023-02-06T16:07:27.171Z,1021.78
2023-02-06T16:12:27.126Z,1021.71
2023-02-06T16:17:27.040Z,1021.72
2023-02-06T16:22:26.983Z,1021.80
2023-02-06T16:27:26.913Z,1021.78
2023-02-06T16:32:26.853Z,1021.81
2023-02-06T16:37:26.783Z,1022.06
2023-02-06T16:42:26.732Z,1022.18
2023-02-06T16:47:26.654Z,1022.19
2023-02-06T16:52:26.596Z,1022.29
2023-02-06T16:57:26.513Z,1022.37
2023-02-06T17:02:26.477Z,1022.45
2023-02-06T17:07:26.384Z,1022.49
2023-02-06T17:12:26.338Z,1022.53
2023-02-06T17:17:26.253Z,1022.63
2023-02-06T17:22:26.201Z,1022.39
2023-02-06T17:27:26.128Z,1022.40
2023-02-06T17:32:26.083Z,1022.44
2023-02-06T17:37:25.998Z,1022.54
2023-02-06T17:42:25.955Z,1022.50
2023-02-06T17:47:25.867Z,1022.59
2023-02-06T17:52:25.809Z,1022.61
2023-02-06T17:57:25.737Z,1022.57
2023-02-06T18:02:25.729Z,1022.65
2023-02-06T18:07:25.715Z,1022.71
2023-02-06T18:12:25.559Z,1022.70
2023-02-06T18:17:25.477Z,1022.72
2023-02-06T18:22:25.429Z,1022.77
2023-02-06T18:27:25.347Z,1022.73
2023-02-06T18:32:25.297Z,1022.80
2023-02-06T18:37:25.214Z,1022.86
2023-02-06T18:42:25.172Z,1022.91
2023-02-06T18:47:25.083Z,1023.04
2023-02-06T18:52:25.035Z,1023.04
2023-02-06T18:57:24.949Z,1022.97
2023-02-06T19:02:24.903Z,1022.88
2023-02-06T19:07:24.826Z,1022.86
2023-02-06T19:12:24.778Z,1022.98
2023-02-06T19:17:24.695Z,1023.14
2023-02-06T19:22:24.650Z,1023.19
2023-02-06T19:27:24.573Z,1023.09
2023-02-06T19:32:24.513Z,1023.27
2023-02-06T19:37:24.441Z,1023.26
2023-02-06T19:42:24.380Z,1023.20
2023-02-06T19:47:24.309Z,1023.25
2023-02-06T19:52:24.247Z,1023.35
2023-02-06T19:57:24.178Z,1023.22
2023-02-06T20:02:24.130Z,1023.55
2023-02-06T20:07:24.044Z,1023.57
2023-02-06T20:12:23.997Z,1023.60
2023-02-06T20:17:23.935Z,1023.67
2023-02-06T20:22:23.892Z,1023.71
2023-02-06T20:27:23.786Z,1023.80
2023-02-06T20:32:23.738Z,1023.85
2023-02-06T20:37:23.660Z,1023.88
2023-02-06T20:42:23.598Z,1023.86
2023-02-06T20:47:23.522Z,1023.79
2023-02-06T20:52:23.462Z,1023.82
2023-02-06T20:57:23.404Z,1023.84
2023-02-06T21:02:23.390Z,1023.90
2023-02-06T21:07:23.258Z,1024.03
2023-02-06T21:12:23.299Z,1024.13
2023-02-06T21:17:23.179Z,1023.94
2023-02-06T21:22:23.321Z,1023.96
2023-02-06T21:27:23.247Z,1024.03
2023-02-06T21:32:23.342Z,1024.02
2023-02-06T21:37:23.267Z,1024.00
2023-02-06T21:42:23.260Z,1024.23
2023-02-06T21:47:23.335Z,1024.10
2023-02-06T21:52:22.681Z,1024.08
2023-02-06T21:57:22.616Z,1024.11
2023-02-06T22:02:22.552Z,1024.09
2023-02-06T22:07:22.493Z,1024.06
2023-02-06T22:12:22.420Z,1024.06
2023-02-06T22:17:22.356Z,1024.27
2023-02-06T22:22:22.299Z,1024.23
2023-02-06T22:27:22.230Z,1024.56
2023-02-06T22:32:22.215Z,1024.45
2023-02-06T22:37:22.148Z,1024.26
2023-02-06T22:42:22.027Z,1024.44
2023-02-06T22:47:21.960Z,1024.46
2023-02-06T22:52:21.895Z,1024.45
2023-02-06T22:57:21.824Z,1024.59
2023-02-06T23:02:21.844Z,1024.73
2023-02-06T23:07:21.753Z,1024.74
2023-02-06T23:12:21.647Z,1024.76
2023-02-06T23:17:21.642Z,1024.71
2023-02-06T23:22:21.610Z,1024.66
2023-02-06T23:27:21.461Z,1024.70
2023-02-06T23:32:21.395Z,1024.59
2023-02-06T23:37:21.333Z,1024.70
2023-02-06T23:42:21.263Z,1024.71
2023-02-06T23:47:21.200Z,1024.57
2023-02-06T23:52:21.136Z,1024.50
2023-02-06T23:57:21.084Z,1024.62
